Time,TemperatureF,DewpointF,PressureIn,WindDirection,WindDirectionDegrees,WindSpeedMPH,WindSpeedGustMPH,Humidity,HourlyPrecipIn,Conditions,Clouds,dailyrainin,SolarRadiationWatts/m^2,SoftwareType,DateUTC
2013-07-17 00:42:00,60.0,48.0,29.96,West,262,1.0,4.0,65,0.00,,,-99.99,0.000000,,2013-07-17 07:42:00,
2013-07-17 00:52:00,60.0,48.0,29.96,West,262,1.0,4.0,65,0.00,,,-99.99,0.000000,,2013-07-17 07:52:00,
2013-07-17 01:22:00,57.0,47.0,29.96,SE,145,1.0,2.0,70,0.00,,,-99.99,0.000000,,2013-07-17 08:22:00,
2013-07-17 01:32:00,57.0,47.0,29.96,SE,145,1.0,2.0,70,0.00,,,-99.99,0.000000,,2013-07-17 08:32:00,
2013-07-17 01:42:00,57.0,47.0,29.96,SE,145,1.0,2.0,70,0.00,,,-99.99,0.000000,,2013-07-17 08:42:00,
2013-07-17 01:52:00,57.0,47.0,29.96,SE,145,1.0,2.0,70,0.00,,,-99.99,0.000000,,2013-07-17 08:52:00,
2013-07-17 02:22:00,53.0,45.0,29.98,WNW,286,1.0,3.0,74,0.00,,,-99.99,0.000000,,2013-07-17 09:22:00,
2013-07-17 02:32:00,53.0,45.0,29.98,WNW,286,1.0,3.0,74,0.00,,,-99.99,0.000000,,2013-07-17 09:32:00,
2013-07-17 02:43:00,53.0,45.0,29.98,WNW,286,1.0,3.0,74,0.00,,,-99.99,0.000000,,2013-07-17 09:43:00,
2013-07-17 02:52:00,53.0,45.0,29.98,WNW,286,1.0,3.0,74,0.00,,,-99.99,0.000000,,2013-07-17 09:52:00,
2013-07-17 05:22:00,50.0,45.0,29.98,WSW,255,1.0,3.0,83,-99.99,,,-99.99,0.000000,,2013-07-17 12:22:00,
2013-07-17 05:53:00,50.0,45.0,29.98,WSW,255,1.0,3.0,83,-99.99,,,-99.99,0.000000,,2013-07-17 12:53:00,
2013-07-17 06:52:00,49.0,44.0,30.00,NNE,16,1.0,3.0,84,0.00,,,-99.99,0.000000,,2013-07-17 13:52:00,
2013-07-17 07:43:00,50.0,43.0,30.01,SW,224,1.0,3.0,78,-99.99,,,-99.99,21.000000,,2013-07-17 14:43:00,
2013-07-17 07:52:00,50.0,43.0,30.01,SW,224,1.0,3.0,78,-99.99,,,-99.99,21.000000,,2013-07-17 14:52:00,
2013-07-17 08:21:00,60.0,45.0,30.01,NW,324,1.0,3.0,58,-99.99,,,-99.99,52.000000,,2013-07-17 15:21:00,
2013-07-17 08:32:00,60.0,45.0,30.01,NW,324,1.0,3.0,58,-99.99,,,-99.99,52.000000,,2013-07-17 15:32:00,
2013-07-17 08:42:00,60.0,45.0,30.01,NW,324,1.0,3.0,58,-99.99,,,-99.99,52.000000,,2013-07-17 15:42:00,
2013-07-17 08:52:00,60.0,45.0,30.01,NW,324,1.0,3.0,58,-99.99,,,-99.99,52.000000,,2013-07-17 15:52:00,
2013-07-17 09:21:00,73.0,47.0,30.01,SSE,154,1.0,3.0,39,0.00,,,-99.99,391.000000,,2013-07-17 16:21:00,
2013-07-17 09:33:00,73.0,47.0,30.01,SSE,154,1.0,3.0,39,0.00,,,-99.99,391.000000,,2013-07-17 16:33:00,
2013-07-17 09:42:00,73.0,47.0,30.01,SSE,154,1.0,3.0,39,0.00,,,-99.99,391.000000,,2013-07-17 16:42:00,
2013-07-17 09:52:00,73.0,47.0,30.01,SSE,154,1.0,3.0,39,0.00,,,-99.99,391.000000,,2013-07-17 16:52:00,
2013-07-17 10:21:00,79.0,49.0,30.00,South,180,10.0,11.0,35,0.00,,,-99.99,687.000000,,2013-07-17 17:21:00,
2013-07-17 10:32:00,79.0,49.0,30.00,South,180,10.0,11.0,35,0.00,,,-99.99,687.000000,,2013-07-17 17:32:00,
2013-07-17 10:43:00,79.0,49.0,30.00,South,180,10.0,11.0,35,0.00,,,-99.99,687.000000,,2013-07-17 17:43:00,
2013-07-17 10:52:00,79.0,49.0,30.00,South,180,10.0,11.0,35,0.00,,,-99.99,687.000000,,2013-07-17 17:52:00,
2013-07-17 11:32:00,79.0,48.0,30.00,South,181,16.0,22.0,34,0.00,,,0.00,865.000000,,2013-07-17 18:32:00,
2013-07-17 11:43:00,79.0,48.0,30.00,South,181,16.0,22.0,34,0.00,,,0.00,865.000000,,2013-07-17 18:43:00,
2013-07-17 11:52:00,79.0,48.0,30.00,South,181,16.0,22.0,34,0.00,,,0.00,865.000000,,2013-07-17 18:52:00,
2013-07-17 12:22:00,83.0,47.0,30.00,South,177,20.0,26.0,29,0.00,,,0.00,996.000000,,2013-07-17 19:22:00,
2013-07-17 12:32:00,83.0,47.0,30.00,South,177,20.0,26.0,29,0.00,,,0.00,996.000000,,2013-07-17 19:32:00,
2013-07-17 12:43:00,83.0,47.0,30.00,South,177,20.0,26.0,29,0.00,,,0.00,996.000000,,2013-07-17 19:43:00,
2013-07-17 12:53:00,83.0,47.0,30.00,South,177,20.0,26.0,29,0.00,,,0.00,996.000000,,2013-07-17 19:53:00,
2013-07-17 13:22:00,84.0,47.0,29.98,South,182,17.0,29.0,28,0.00,,,-99.99,1065.000000,,2013-07-17 20:22:00,
2013-07-17 13:33:00,84.0,47.0,29.98,South,182,17.0,29.0,28,0.00,,,-99.99,1065.000000,,2013-07-17 20:33:00,
2013-07-17 13:43:00,84.0,47.0,29.98,South,182,17.0,29.0,28,0.00,,,-99.99,1065.000000,,2013-07-17 20:43:00,
2013-07-17 13:52:00,84.0,47.0,29.98,South,182,17.0,29.0,28,0.00,,,-99.99,1065.000000,,2013-07-17 20:52:00,
2013-07-17 14:52:00,88.0,44.0,29.98,South,186,16.0,29.0,22,0.00,,,0.00,1071.000000,,2013-07-17 21:52:00,
2013-07-17 15:43:00,90.0,43.0,29.96,South,174,16.0,34.0,20,0.00,,,0.00,1021.000000,,2013-07-17 22:43:00,
2013-07-17 15:53:00,90.0,43.0,29.96,South,174,16.0,34.0,20,0.00,,,0.00,1021.000000,,2013-07-17 22:53:00,
2013-07-17 16:42:00,90.0,48.0,29.96,South,175,17.0,30.0,24,-99.99,,,0.00,910.000000,,2013-07-17 23:42:00,
2013-07-17 16:52:00,90.0,48.0,29.96,South,175,17.0,30.0,24,-99.99,,,0.00,910.000000,,2013-07-17 23:52:00,
2013-07-17 20:32:00,81.0,42.0,29.94,NNW,337,8.0,15.0,25,-99.99,,,0.00,100.000000,,2013-07-18 03:32:00,
2013-07-17 20:43:00,81.0,42.0,29.94,NNW,337,8.0,15.0,25,-99.99,,,0.00,100.000000,,2013-07-18 03:43:00,
2013-07-17 20:52:00,81.0,42.0,29.94,NNW,337,8.0,15.0,25,-99.99,,,0.00,100.000000,,2013-07-18 03:52:00,
2013-07-17 21:22:00,72.0,43.0,29.96,NNE,13,4.0,12.0,35,-99.99,,,0.00,1.000000,,2013-07-18 04:22:00,
2013-07-17 21:32:00,72.0,43.0,29.96,NNE,13,4.0,12.0,35,-99.99,,,0.00,1.000000,,2013-07-18 04:32:00,
2013-07-17 21:43:00,72.0,43.0,29.96,NNE,13,4.0,12.0,35,-99.99,,,0.00,1.000000,,2013-07-18 04:43:00,
2013-07-17 21:52:00,72.0,43.0,29.96,NNE,13,4.0,12.0,35,-99.99,,,0.00,1.000000,,2013-07-18 04:52:00,
2013-07-17 22:21:00,68.0,46.0,29.98,North,357,1.0,7.0,45,0.00,,,0.00,0.000000,,2013-07-18 05:21:00,
2013-07-17 22:32:00,68.0,46.0,29.98,North,357,1.0,7.0,45,0.00,,,0.00,0.000000,,2013-07-18 05:32:00,
2013-07-17 22:42:00,68.0,46.0,29.98,North,357,1.0,7.0,45,0.00,,,0.00,0.000000,,2013-07-18 05:42:00,
2013-07-17 22:52:00,68.0,46.0,29.98,North,357,1.0,7.0,45,0.00,,,0.00,0.000000,,2013-07-18 05:52:00,
2013-07-17 23:43:00,65.0,46.0,29.98,NW,323,1.0,5.0,51,0.00,,,0.00,0.000000,,2013-07-18 06:43:00,
2013-07-17 23:52:00,65.0,46.0,29.98,NW,323,1.0,5.0,51,0.00,,,0.00,0.000000,,2013-07-18 06:52:00,